Aviation Digital Data Service (ADDS)

Output produced by METARs form (2155 UTC 03 May 2015)
found at http://www.aviationweather.gov/adds/metars/
 
KMDT 032056Z 00000KT 10SM SCT100 BKN250 26/03 A3006 RMK AO2 SLP178 T02610028 56008
KMDT 031956Z 00000KT 10SM FEW070 BKN110 25/03 A3006 RMK AO2 SLP180 T02500028
KMDT 031856Z 00000KT 10SM FEW070 SCT095 26/03 A3007 RMK AO2 SLP183 T02610033
KMDT 031756Z 27004KT 10SM FEW070 SCT095 26/04 A3008 RMK AO2 SLP186 T02560039 10256 20133 58010
KMDT 031656Z COR 33006KT 10SM SCT065 25/03 A3009 RMK AO2 SLP191 T02500028
KMDT 031556Z 30004KT 10SM FEW050 FEW085 24/02 A3011 RMK AO2 SLP194 T02390022
KMDT 031456Z 30005KT 10SM FEW065 22/04 A3011 RMK AO2 SLP195 T02220044 51005
KMDT 031356Z 31007KT 10SM FEW065 FEW200 20/06 A3011 RMK AO2 SLP195 T02000056
KMDT 031256Z 32004KT 10SM FEW080 17/07 A3011 RMK AO2 SLP195 T01670067
KMDT 031156Z 33006KT 10SM FEW060 FEW200 13/08 A3010 RMK AO2 SLP191 T01280083 10128 20078 53016
KMDT 031056Z 01003KT 10SM FEW100 FEW150 09/06 A3008 RMK AO2 SLP184 T00940061
KMDT 030956Z 00000KT 10SM FEW085 08/05 A3006 RMK AO2 SLP178 T00830050
KMDT 030856Z 34005KT 10SM FEW100 11/07 A3005 RMK AO2 SLP175 T01060067 53018
KMDT 030756Z 31006KT 10SM FEW085 09/07 A3003 RMK AO2 SLP169 T00940067
KMDT 030656Z 34003KT 10SM CLR 11/07 A3001 RMK AO2 SLP162 T01110072
KMDT 030556Z 00000KT 10SM FEW100 12/07 A2999 RMK AO2 SLP157 T01220072 10189 20111 53008
KMDT 030456Z 00000KT 10SM SCT100 13/07 A2998 RMK AO2 SLP153 T01280067 402440106
KMDT 030356Z 00000KT 10SM BKN110 16/09 A2997 RMK AO2 SLP150 T01560089
KMDT 030256Z 00000KT 10SM SCT100 18/07 A2997 RMK AO2 SLP149 T01830067 51010
KMDT 030156Z 22011KT 10SM FEW110 BKN250 19/06 A2997 RMK AO2 SLP148 T01890061
KMDT 030056Z 20005KT 10SM FEW100 FEW250 18/08 A2995 RMK AO2 SLP142 T01780083
KMDT 022356Z 22007KT 10SM FEW100 FEW250 19/07 A2994 RMK AO2 SLP139 T01890072 10244 20189 53003
KMDT 022256Z 28004KT 10SM FEW100 FEW250 22/03 A2993 RMK AO2 SLP136 T02170033
KMDT 022156Z 31004KT 10SM SCT110 SCT250 23/03 A2993 RMK AO2 SLP136 T02330033
KMDT 022056Z 29007KT 10SM FEW080 BKN110 22/06 A2993 RMK AO2 SLP136 T02170056 56011
KMDT 021956Z 32007KT 10SM BKN110 24/04 A2994 RMK AO2 SLP138 T02440039
KMDT 021856Z 28010KT 10SM BKN100 21/06 A2995 RMK AO2 SLP143 T02110061
KMDT 021756Z 01010G18KT 10SM SCT075 24/01 A2997 RMK AO2 SLP147 T02390006 10244 20144 58012
KMDT 021656Z 03007KT 360V060 10SM SCT075 23/03 A2998 RMK AO2 SLP151 T02280033
KMDT 021556Z 35008KT 10SM BKN070 21/04 A2999 RMK AO2 SLP156 T02110044
KMDT 021456Z VRB04KT 10SM SCT060 19/07 A3000 RMK AO2 SLP159 T01890067 58002
KMDT 021356Z 36003KT 10SM FEW250 19/06 A3001 RMK AO2 SLP161 T01890061
KMDT 021256Z 35008KT 10SM FEW075 SCT250 17/06 A3001 RMK AO2 SLP161 T01670061
KMDT 021156Z 30004KT 10SM FEW250 14/08 A3000 RMK AO2 SLP161 T01440083 10144 20106 51016
KMDT 021056Z 32005KT 10SM SCT110 12/08 A2999 RMK AO2 SLP156 T01220083
KMDT 020956Z 33003KT 10SM BKN100 12/08 A2997 RMK AO2 SLP151 T01220078